createdAt,value
2022-08-09T00:00:30.926Z,-50.33
2022-08-09T00:01:54.955Z,-50.31
2022-08-09T00:03:10.999Z,-50.32
2022-08-09T00:04:34.588Z,-50.40
2022-08-09T00:06:18.634Z,-50.55
2022-08-09T00:07:12.807Z,-50.05
2022-08-09T00:08:31.824Z,-50.35
2022-08-09T00:09:49.300Z,-50.52
2022-08-09T00:11:24.679Z,-50.35
2022-08-09T00:12:27.221Z,-50.46
2022-08-09T00:13:48.423Z,-50.59
2022-08-09T00:15:06.576Z,-50.38
2022-08-09T00:16:26.268Z,-50.31
2022-08-09T00:18:05.585Z,-50.57
2022-08-09T00:19:09.392Z,-50.52
2022-08-09T00:20:26.624Z,-50.55
2022-08-09T00:21:56.108Z,-50.17
2022-08-09T00:23:56.286Z,-50.59
2022-08-09T00:24:30.334Z,-50.15
2022-08-09T00:25:46.710Z,-50.17
2022-08-09T00:27:07.948Z,-49.93
2022-08-09T00:28:26.460Z,-49.87
2022-08-09T00:30:25.368Z,-49.44
2022-08-09T00:31:30.402Z,-49.60
2022-08-09T00:32:30.019Z,-49.73
2022-08-09T00:33:50.584Z,-49.68
2022-08-09T00:35:09.552Z,-49.93
2022-08-09T00:36:27.152Z,-49.50
2022-08-09T00:37:46.042Z,-49.57
2022-08-09T00:39:02.797Z,-49.37
2022-08-09T00:40:21.127Z,-49.48
2022-08-09T00:44:13.805Z,-49.80
2022-08-09T00:44:15.930Z,-49.58
2022-08-09T00:44:26.164Z,-49.56
2022-08-09T00:45:47.453Z,-49.09
2022-08-09T00:47:04.817Z,-49.99
2022-08-09T00:48:22.187Z,-49.73
2022-08-09T00:49:38.785Z,-49.55
2022-08-09T00:50:56.431Z,-49.83
2022-08-09T00:52:17.459Z,-50.01
2022-08-09T00:53:34.069Z,-49.82
2022-08-09T00:54:52.679Z,-49.99
2022-08-09T00:56:09.734Z,-49.71
2022-08-09T00:57:34.788Z,-49.99
2022-08-09T00:58:49.129Z,-50.23
2022-08-09T01:00:20.710Z,-50.27
2022-08-09T01:01:32.496Z,-50.00
2022-08-09T01:02:48.063Z,-49.91
2022-08-09T01:04:05.741Z,-50.50
2022-08-09T01:05:22.484Z,-49.95
2022-08-09T01:06:54.229Z,-50.05
2022-08-09T01:08:04.905Z,-50.17
2022-08-09T01:09:21.375Z,-49.99
2022-08-09T01:10:40.038Z,-50.11
2022-08-09T01:11:56.460Z,-50.27
2022-08-09T01:13:13.089Z,-49.78
2022-08-09T01:14:33.298Z,-49.81
2022-08-09T01:15:52.116Z,-49.59
2022-08-09T01:17:10.986Z,-49.79
2022-08-09T01:18:29.829Z,-49.87
2022-08-09T01:19:51.717Z,-50.05
2022-08-09T01:21:09.977Z,-49.63
2022-08-09T01:22:26.697Z,-49.92
2022-08-09T01:24:02.710Z,-49.67
2022-08-09T01:25:05.374Z,-49.99
2022-08-09T01:26:23.384Z,-49.81
2022-08-09T01:27:42.453Z,-50.17
2022-08-09T01:28:59.452Z,-50.23
2022-08-09T01:30:35.886Z,-50.27
2022-08-09T01:32:38.590Z,-50.12
2022-08-09T01:32:58.645Z,-50.09
2022-08-09T01:34:15.006Z,-50.46
2022-08-09T01:35:38.881Z,-50.45
2022-08-09T01:36:54.341Z,-50.24
2022-08-09T01:38:15.533Z,-50.34
2022-08-09T01:39:33.978Z,-50.05
2022-08-09T01:40:52.525Z,-50.22
2022-08-09T01:42:13.421Z,-50.37
2022-08-09T01:43:29.932Z,-50.12
2022-08-09T01:44:47.821Z,-50.07
2022-08-09T01:46:04.201Z,-50.31
2022-08-09T01:47:20.596Z,-50.43
2022-08-09T01:48:39.242Z,-50.15
2022-08-09T01:49:56.763Z,-50.73
2022-08-09T01:51:13.134Z,-50.45
2022-08-09T01:52:34.357Z,-50.11
2022-08-09T01:53:58.082Z,-50.27
2022-08-09T01:55:14.817Z,-50.57
2022-08-09T01:56:31.226Z,-50.76
2022-08-09T01:57:50.712Z,-50.77
2022-08-09T01:59:08.857Z,-50.25
2022-08-09T02:00:35.509Z,-50.30
2022-08-09T02:01:58.136Z,-50.33
2022-08-09T02:03:07.680Z,-50.43
2022-08-09T02:04:28.950Z,-50.17
2022-08-09T02:05:53.553Z,-50.13
2022-08-09T02:07:06.561Z,-50.27
2022-08-09T02:08:39.590Z,-50.29
2022-08-09T02:09:46.198Z,-50.84
2022-08-09T02:11:17.254Z,-50.53
2022-08-09T02:12:28.633Z,-50.71
2022-08-09T02:14:07.340Z,-50.59
2022-08-09T02:15:15.486Z,-51.01
2022-08-09T02:16:33.785Z,-50.82
2022-08-09T02:18:01.704Z,-50.88
2022-08-09T02:19:12.293Z,-50.63
2022-08-09T02:20:32.777Z,-50.63
2022-08-09T02:21:55.183Z,-50.63
2022-08-09T02:23:11.509Z,-50.79
2022-08-09T02:24:30.401Z,-50.36
2022-08-09T02:25:52.467Z,-50.51
2022-08-09T02:27:08.029Z,-50.37
2022-08-09T02:28:24.416Z,-50.32
2022-08-09T02:29:42.013Z,-50.41
2022-08-09T02:30:58.383Z,-50.52
2022-08-09T02:32:15.441Z,-50.32
2022-08-09T02:33:58.289Z,-50.17
2022-08-09T02:34:55.858Z,-50.16
2022-08-09T02:36:14.072Z,-50.19
2022-08-09T02:37:33.113Z,-49.76
2022-08-09T02:38:53.146Z,-50.18
2022-08-09T02:40:10.636Z,-50.07
2022-08-09T02:41:28.025Z,-49.59
2022-08-09T02:42:45.376Z,-49.87
2022-08-09T02:44:10.522Z,-49.84
2022-08-09T02:45:28.805Z,-50.36
2022-08-09T02:46:45.557Z,-50.04
2022-08-09T02:48:19.489Z,-49.77
2022-08-09T02:49:38.702Z,-49.61
2022-08-09T02:50:56.145Z,-49.19
2022-08-09T02:52:12.532Z,-49.28
2022-08-09T02:53:29.220Z,-49.22
2022-08-09T02:54:51.173Z,-49.41
2022-08-09T02:56:07.472Z,-49.36
2022-08-09T02:57:24.022Z,-49.36
2022-08-09T02:58:41.624Z,-49.31
2022-08-09T03:00:20.548Z,-49.32
2022-08-09T03:01:29.302Z,-49.49
2022-08-09T03:03:00.401Z,-49.75
2022-08-09T03:04:17.159Z,-50.01
2022-08-09T03:05:34.587Z,-49.62
2022-08-09T03:06:51.287Z,-49.87
2022-08-09T03:08:08.026Z,-50.15
2022-08-09T03:09:24.409Z,-49.93
2022-08-09T03:10:41.925Z,-49.79
2022-08-09T03:12:06.555Z,-49.55
2022-08-09T03:13:21.410Z,-49.45
2022-08-09T03:14:40.866Z,-49.75
2022-08-09T03:16:06.464Z,-49.88
2022-08-09T03:17:27.231Z,-49.95
2022-08-09T03:18:41.613Z,-49.83
2022-08-09T03:20:05.355Z,-50.04
2022-08-09T03:21:19.845Z,-49.67
2022-08-09T03:22:43.634Z,-49.45
2022-08-09T03:24:04.367Z,-49.40
2022-08-09T03:25:26.242Z,-49.55
2022-08-09T03:26:46.299Z,-49.87
2022-08-09T03:28:03.874Z,-49.81
2022-08-09T03:29:23.363Z,-49.81
2022-08-09T03:30:39.770Z,-50.17
2022-08-09T03:32:00.378Z,-50.15
2022-08-09T03:33:19.628Z,-50.38
2022-08-09T03:34:35.999Z,-50.51
2022-08-09T03:36:12.258Z,-50.07
2022-08-09T03:37:54.602Z,-50.25
2022-08-09T03:38:35.765Z,-50.09
2022-08-09T03:39:55.516Z,-50.13
2022-08-09T03:41:15.084Z,-49.92
2022-08-09T03:42:32.804Z,-50.00
2022-08-09T03:44:03.148Z,-50.04
2022-08-09T03:45:10.544Z,-50.02
2022-08-09T03:46:29.256Z,-50.43
2022-08-09T03:47:47.309Z,-50.49
2022-08-09T03:49:07.980Z,-50.39
2022-08-09T03:50:27.921Z,-50.37
2022-08-09T03:51:56.040Z,-50.53
2022-08-09T03:53:07.434Z,-50.12
2022-08-09T03:54:29.198Z,-50.37
2022-08-09T03:55:46.434Z,-50.49
2022-08-09T03:57:04.309Z,-50.46
2022-08-09T03:58:24.310Z,-50.49
2022-08-09T03:59:54.797Z,-50.72
2022-08-09T04:01:05.530Z,-50.69
2022-08-09T04:02:30.587Z,-50.83
2022-08-09T04:03:46.484Z,-50.76
2022-08-09T04:05:27.609Z,-50.60
2022-08-09T04:06:29.552Z,-50.87
2022-08-09T04:07:52.750Z,-50.84
2022-08-09T04:09:13.662Z,-50.96
2022-08-09T04:10:30.690Z,-50.92
2022-08-09T04:11:47.047Z,-50.84
2022-08-09T04:13:08.698Z,-51.05
2022-08-09T04:14:52.951Z,-51.13
2022-08-09T04:16:19.591Z,-50.83
2022-08-09T04:17:14.418Z,-51.31
2022-08-09T04:18:33.936Z,-50.92
2022-08-09T04:19:51.389Z,-51.22
2022-08-09T04:21:11.830Z,-51.37
2022-08-09T04:22:31.843Z,-51.69
2022-08-09T04:23:53.652Z,-51.40
2022-08-09T04:25:12.892Z,-51.75
2022-08-09T04:26:37.722Z,-51.69
2022-08-09T04:27:52.976Z,-51.90
2022-08-09T04:29:15.659Z,-52.29
2022-08-09T04:30:34.182Z,-52.30
2022-08-09T04:31:51.494Z,-51.91
2022-08-09T04:33:10.337Z,-52.10
2022-08-09T04:34:30.438Z,-51.77
2022-08-09T04:35:50.054Z,-51.86
2022-08-09T04:37:08.797Z,-51.86
2022-08-09T04:38:26.678Z,-51.75
2022-08-09T04:39:43.382Z,-52.17
2022-08-09T04:41:05.500Z,-52.39
2022-08-09T04:42:28.679Z,-52.33
2022-08-09T04:44:05.134Z,-51.91
2022-08-09T04:45:09.294Z,-52.33
2022-08-09T04:46:57.055Z,-52.50
2022-08-09T04:47:59.355Z,-52.37
2022-08-09T04:49:14.803Z,-52.69
2022-08-09T04:50:35.065Z,-53.30
2022-08-09T04:51:55.545Z,-53.22
2022-08-09T04:53:15.891Z,-53.50
2022-08-09T04:54:33.206Z,-53.60
2022-08-09T04:55:58.281Z,-52.91
2022-08-09T04:57:15.285Z,-53.05
2022-08-09T04:58:37.959Z,-53.05
2022-08-09T04:59:56.356Z,-53.16
2022-08-09T05:01:16.078Z,-53.06
2022-08-09T05:02:35.220Z,-53.09
2022-08-09T05:03:58.498Z,-53.37
2022-08-09T05:05:31.477Z,-53.59
2022-08-09T05:06:39.039Z,-53.72
2022-08-09T05:07:56.360Z,-53.81
2022-08-09T05:09:14.740Z,-53.84
2022-08-09T05:10:33.817Z,-53.53
2022-08-09T05:11:55.800Z,-53.61
2022-08-09T05:13:15.480Z,-53.53
2022-08-09T05:14:34.373Z,-53.52
2022-08-09T05:15:56.937Z,-53.85
2022-08-09T05:18:50.761Z,-54.18
2022-08-09T05:18:57.798Z,-54.10
2022-08-09T05:19:59.738Z,-54.26
2022-08-09T05:21:23.159Z,-54.33
2022-08-09T05:23:55.697Z,-54.52
2022-08-09T05:24:07.441Z,-54.22
2022-08-09T05:25:24.912Z,-54.30
2022-08-09T05:26:47.703Z,-54.17
2022-08-09T05:28:05.541Z,-54.47
2022-08-09T05:29:31.215Z,-54.25
2022-08-09T05:30:48.201Z,-54.55
2022-08-09T05:32:05.872Z,-54.61
2022-08-09T05:33:26.551Z,-54.72
2022-08-09T05:34:47.521Z,-54.95
2022-08-09T05:36:05.013Z,-54.73
2022-08-09T05:37:26.034Z,-54.61
2022-08-09T05:38:46.021Z,-54.82
2022-08-09T05:40:05.216Z,-54.59
2022-08-09T05:41:24.674Z,-54.36
2022-08-09T05:42:42.312Z,-54.59
2022-08-09T05:44:00.039Z,-54.40
2022-08-09T05:45:16.576Z,-54.22
2022-08-09T05:46:34.936Z,-53.94
2022-08-09T05:47:57.980Z,-54.04
2022-08-09T05:49:33.832Z,-53.86
2022-08-09T05:50:51.119Z,-54.08
2022-08-09T05:52:01.576Z,-54.24
2022-08-09T05:53:21.706Z,-54.17
2022-08-09T05:54:46.558Z,-54.27
2022-08-09T05:56:06.667Z,-54.30
2022-08-09T05:57:51.219Z,-54.24
2022-08-09T05:58:54.838Z,-54.51
2022-08-09T06:00:13.492Z,-54.46
2022-08-09T06:01:33.664Z,-54.46
2022-08-09T06:02:56.860Z,-54.57
2022-08-09T06:04:16.120Z,-54.59
2022-08-09T06:05:57.713Z,-54.72
2022-08-09T06:07:09.463Z,-54.41
2022-08-09T06:08:26.905Z,-54.50
2022-08-09T06:10:02.025Z,-54.60
2022-08-09T06:11:16.638Z,-54.38
2022-08-09T06:12:28.862Z,-54.73
2022-08-09T06:13:47.905Z,-55.03
2022-08-09T06:15:09.806Z,-54.80
2022-08-09T06:16:27.620Z,-54.75
2022-08-09T06:17:45.057Z,-55.02
2022-08-09T06:19:05.105Z,-54.85
2022-08-09T06:20:22.744Z,-55.20
2022-08-09T06:21:51.366Z,-55.53
2022-08-09T06:23:04.390Z,-55.46
2022-08-09T06:24:23.174Z,-55.27
2022-08-09T06:25:41.533Z,-55.42
2022-08-09T06:27:00.751Z,-55.50
2022-08-09T06:28:19.724Z,-55.48
2022-08-09T06:29:48.027Z,-55.78
2022-08-09T06:31:02.565Z,-55.43
2022-08-09T06:33:00.855Z,-55.72
2022-08-09T06:33:52.941Z,-55.61
2022-08-09T06:35:10.074Z,-55.92
2022-08-09T06:36:30.836Z,-55.94
2022-08-09T06:37:53.141Z,-55.83
2022-08-09T06:39:12.833Z,-56.03
2022-08-09T06:40:31.564Z,-55.77
2022-08-09T06:42:09.202Z,-56.37
2022-08-09T06:43:14.337Z,-56.34
2022-08-09T06:44:30.794Z,-56.12
2022-08-09T06:47:41.965Z,-56.97
2022-08-09T06:49:00.888Z,-56.63
2022-08-09T06:50:19.988Z,-56.65
2022-08-09T06:51:40.216Z,-56.72
2022-08-09T06:52:58.309Z,-56.77
2022-08-09T06:54:15.803Z,-56.12
2022-08-09T06:55:39.271Z,-56.49
2022-08-09T06:56:58.382Z,-56.52
2022-08-09T06:58:40.732Z,-56.84
2022-08-09T07:00:50.244Z,-56.83
2022-08-09T07:01:03.294Z,-56.71
2022-08-09T07:02:23.001Z,-56.67
2022-08-09T07:03:53.104Z,-56.86
2022-08-09T07:05:11.413Z,-56.91
2022-08-09T07:06:29.861Z,-56.73
2022-08-09T07:08:00.085Z,-57.14
2022-08-09T07:09:53.544Z,-57.20
2022-08-09T07:12:38.059Z,-57.39
2022-08-09T07:14:05.704Z,-57.26
2022-08-09T07:16:36.112Z,-57.20
2022-08-09T07:16:42.173Z,-57.32
2022-08-09T07:18:02.386Z,-57.61
2022-08-09T07:19:23.347Z,-57.49
2022-08-09T07:20:43.363Z,-57.76
2022-08-09T07:22:02.226Z,-57.70
2022-08-09T07:23:20.017Z,-57.81
2022-08-09T07:24:40.592Z,-57.85
2022-08-09T07:26:02.654Z,-57.35
2022-08-09T07:27:26.805Z,-57.50
2022-08-09T07:29:09.236Z,-57.45
2022-08-09T07:30:07.295Z,-57.34
2022-08-09T07:31:25.937Z,-57.28
2022-08-09T07:32:48.345Z,-57.12
2022-08-09T07:34:08.897Z,-56.90
2022-08-09T07:35:53.205Z,-56.86
2022-08-09T07:36:56.287Z,-57.02
2022-08-09T07:38:15.423Z,-56.90
2022-08-09T07:39:40.190Z,-56.71
2022-08-09T07:41:11.809Z,-56.62
2022-08-09T07:42:19.660Z,-56.76
2022-08-09T07:43:56.001Z,-56.78
2022-08-09T07:45:22.632Z,-56.38
2022-08-09T07:46:32.921Z,-56.69
2022-08-09T07:48:01.634Z,-56.81
2022-08-09T07:49:17.773Z,-55.73
2022-08-09T07:50:37.014Z,-56.59
2022-08-09T07:52:05.358Z,-56.63
2022-08-09T07:54:01.620Z,-56.51
2022-08-09T07:54:45.166Z,-56.98
2022-08-09T07:56:08.845Z,-56.85
2022-08-09T07:57:35.620Z,-57.07
2022-08-09T07:58:53.244Z,-56.95
2022-08-09T08:00:12.631Z,-57.22
2022-08-09T08:01:36.356Z,-57.22
2022-08-09T08:02:58.016Z,-56.89
2022-08-09T08:04:17.190Z,-56.87
2022-08-09T08:05:53.490Z,-57.05
2022-08-09T08:07:00.318Z,-57.26
2022-08-09T08:09:00.804Z,-57.17
2022-08-09T08:09:51.737Z,-57.45
2022-08-09T08:12:10.103Z,-57.14
2022-08-09T08:12:31.299Z,-57.09
2022-08-09T08:13:56.978Z,-56.72
2022-08-09T08:15:12.187Z,-56.91
2022-08-09T08:16:32.524Z,-56.68
2022-08-09T08:17:58.331Z,-56.66
2022-08-09T08:19:17.689Z,-57.26
2022-08-09T08:20:38.129Z,-56.85
2022-08-09T08:22:03.748Z,-57.31
2022-08-09T08:23:23.167Z,-57.02
2022-08-09T08:24:50.882Z,-57.50
2022-08-09T08:26:11.655Z,-57.18
2022-08-09T08:27:40.562Z,-57.35
2022-08-09T08:28:55.821Z,-57.69
2022-08-09T08:30:13.961Z,-57.96
2022-08-09T08:32:02.225Z,-58.22
2022-08-09T08:32:56.653Z,-58.30
2022-08-09T08:34:16.592Z,-58.24
2022-08-09T08:37:41.944Z,-57.18
2022-08-09T08:38:54.265Z,-56.89
2022-08-09T08:40:13.667Z,-57.27
2022-08-09T08:43:23.286Z,-57.15
2022-08-09T08:44:41.765Z,-56.97
2022-08-09T08:46:04.015Z,-56.85
2022-08-09T08:47:23.876Z,-56.89
2022-08-09T08:48:51.244Z,-56.83
2022-08-09T08:50:09.879Z,-56.63
2022-08-09T08:51:41.580Z,-56.49
2022-08-09T08:53:00.776Z,-56.43
2022-08-09T08:54:28.093Z,-56.46
2022-08-09T08:55:44.491Z,-56.49
2022-08-09T08:57:03.453Z,-56.49
2022-08-09T08:58:27.489Z,-56.34
2022-08-09T08:59:46.585Z,-56.70
2022-08-09T09:01:08.881Z,-56.75
2022-08-09T09:04:26.643Z,-57.23
2022-08-09T09:06:03.359Z,-57.11
2022-08-09T09:07:10.356Z,-57.16
2022-08-09T09:08:32.192Z,-57.15
2022-08-09T09:10:02.398Z,-57.40
2022-08-09T09:11:19.736Z,-57.41
2022-08-09T09:12:37.966Z,-57.53
2022-08-09T09:13:58.750Z,-57.58
2022-08-09T09:15:28.563Z,-57.78
2022-08-09T09:16:40.309Z,-57.84
2022-08-09T09:17:58.043Z,-56.80
2022-08-09T09:19:37.598Z,-56.46
2022-08-09T09:20:40.354Z,-56.54
2022-08-09T09:22:07.788Z,-56.78
2022-08-09T09:23:37.625Z,-56.40
2022-08-09T09:24:51.456Z,-56.47
2022-08-09T09:26:12.767Z,-56.78
2022-08-09T09:28:06.055Z,-56.63
2022-08-09T09:29:04.598Z,-56.41
2022-08-09T09:32:03.267Z,-55.85
2022-08-09T09:33:16.140Z,-56.28
2022-08-09T09:34:29.200Z,-56.49
2022-08-09T09:37:37.266Z,-56.06
2022-08-09T09:39:01.181Z,-56.27
2022-08-09T09:40:19.228Z,-56.29
2022-08-09T09:41:49.443Z,-56.20
2022-08-09T09:43:03.045Z,-56.35
2022-08-09T09:47:56.126Z,-56.57
2022-08-09T09:49:04.980Z,-56.51
2022-08-09T09:50:25.436Z,-56.80
2022-08-09T09:51:47.911Z,-56.48
2022-08-09T09:53:09.047Z,-57.03
2022-08-09T09:54:30.406Z,-56.88
2022-08-09T09:55:47.347Z,-57.19
2022-08-09T09:58:03.710Z,-56.83
2022-08-09T09:58:31.554Z,-56.82
2022-08-09T09:59:52.268Z,-56.61
2022-08-09T10:01:31.449Z,-56.83
2022-08-09T10:06:16.205Z,-56.95
2022-08-09T10:07:35.912Z,-56.79
2022-08-09T10:08:59.044Z,-56.56
2022-08-09T10:10:18.603Z,-56.64
2022-08-09T10:11:59.735Z,-56.72
2022-08-09T10:13:00.224Z,-57.39
2022-08-09T10:14:19.463Z,-56.77
2022-08-09T10:16:08.983Z,-56.58
2022-08-09T10:17:24.352Z,-56.86
2022-08-09T10:18:28.044Z,-56.54
2022-08-09T10:19:53.092Z,-56.57
2022-08-09T10:21:11.759Z,-56.39
2022-08-09T10:22:34.311Z,-56.04
2022-08-09T10:23:52.421Z,-55.68
2022-08-09T10:25:14.279Z,-56.07
2022-08-09T10:26:34.755Z,-55.57
2022-08-09T10:27:57.067Z,-55.56
2022-08-09T10:29:35.912Z,-55.90
2022-08-09T10:34:09.776Z,-55.84
2022-08-09T10:35:17.099Z,-56.19
2022-08-09T10:36:38.322Z,-55.84
2022-08-09T10:37:55.853Z,-55.76
2022-08-09T10:39:19.295Z,-56.10
2022-08-09T10:40:41.094Z,-55.46
2022-08-09T10:42:03.823Z,-55.72
2022-08-09T10:43:23.911Z,-55.28
2022-08-09T10:44:42.207Z,-55.28
2022-08-09T10:46:02.216Z,-54.88
2022-08-09T10:48:26.151Z,-55.10
2022-08-09T10:48:45.012Z,-55.12
2022-08-09T10:50:09.925Z,-55.68
2022-08-09T10:51:40.843Z,-55.46
2022-08-09T10:52:52.530Z,-55.31
2022-08-09T10:54:13.011Z,-55.44
2022-08-09T10:55:35.726Z,-55.58
2022-08-09T10:56:56.206Z,-55.35
2022-08-09T10:58:17.303Z,-55.74
2022-08-09T10:59:55.544Z,-55.84
2022-08-09T11:03:06.489Z,-55.68
2022-08-09T11:03:15.113Z,-55.60
2022-08-09T11:03:53.313Z,-55.66
2022-08-09T11:05:24.801Z,-55.73
2022-08-09T11:06:37.247Z,-55.48
2022-08-09T11:07:58.999Z,-55.67
2022-08-09T11:09:18.576Z,-55.72
2022-08-09T11:10:36.492Z,-55.19
2022-08-09T11:11:56.692Z,-55.44
2022-08-09T11:13:49.310Z,-55.27
2022-08-09T11:14:38.368Z,-55.66
2022-08-09T11:17:48.549Z,-55.19
2022-08-09T11:19:12.859Z,-55.53
2022-08-09T11:20:29.783Z,-55.56
2022-08-09T11:21:57.417Z,-55.58
2022-08-09T11:23:16.755Z,-55.55
2022-08-09T11:24:38.511Z,-55.31
2022-08-09T11:25:58.407Z,-55.07
2022-08-09T11:27:52.760Z,-54.85
2022-08-09T11:28:55.700Z,-54.84
2022-08-09T11:30:32.413Z,-54.37
2022-08-09T11:31:36.460Z,-54.60
2022-08-09T11:32:53.830Z,-54.42
2022-08-09T11:34:13.718Z,-54.34
2022-08-09T11:35:35.193Z,-54.07
2022-08-09T11:37:01.940Z,-53.67
2022-08-09T11:38:19.470Z,-53.73
2022-08-09T11:39:39.706Z,-53.23
2022-08-09T11:40:57.780Z,-53.09
2022-08-09T11:42:17.748Z,-53.49
2022-08-09T11:43:40.300Z,-53.03
2022-08-09T11:44:58.590Z,-52.90
2022-08-09T11:46:26.616Z,-52.54
2022-08-09T11:47:39.103Z,-52.74
2022-08-09T11:48:58.785Z,-52.42
2022-08-09T11:50:53.539Z,-52.77
2022-08-09T11:52:56.312Z,-52.31
2022-08-09T11:53:16.334Z,-52.84
2022-08-09T11:54:30.106Z,-52.25
2022-08-09T11:55:52.086Z,-52.04
2022-08-09T11:57:11.058Z,-53.01
2022-08-09T11:58:32.750Z,-52.70
2022-08-09T11:59:52.330Z,-52.55
2022-08-09T12:01:15.561Z,-53.25
2022-08-09T12:02:40.590Z,-53.01
2022-08-09T12:03:58.304Z,-52.71
2022-08-09T12:05:17.676Z,-52.69
2022-08-09T12:06:40.780Z,-52.46
2022-08-09T12:08:04.152Z,-52.66
2022-08-09T12:09:21.462Z,-52.62
2022-08-09T12:10:40.556Z,-52.47
2022-08-09T12:12:03.116Z,-52.25
2022-08-09T12:14:07.917Z,-52.73
2022-08-09T12:15:07.465Z,-52.69
2022-08-09T12:16:08.336Z,-52.35
2022-08-09T12:17:42.377Z,-52.43
2022-08-09T12:18:53.954Z,-51.99
2022-08-09T12:20:11.547Z,-51.42
2022-08-09T12:21:38.639Z,-51.35
2022-08-09T12:22:57.818Z,-51.35
2022-08-09T12:24:16.160Z,-50.71
2022-08-09T12:25:37.614Z,-50.83
2022-08-09T12:28:58.428Z,-51.30
2022-08-09T12:28:59.481Z,-50.99
2022-08-09T12:29:54.635Z,-50.85
2022-08-09T12:31:05.691Z,-51.12
2022-08-09T12:32:29.894Z,-50.79
2022-08-09T12:33:59.143Z,-50.97
2022-08-09T12:35:13.452Z,-50.46
2022-08-09T12:36:36.093Z,-50.64
2022-08-09T12:37:55.225Z,-50.92
2022-08-09T12:39:13.123Z,-50.86
2022-08-09T12:40:34.230Z,-50.20
2022-08-09T12:41:51.632Z,-50.25
2022-08-09T12:43:08.956Z,-50.60
2022-08-09T12:44:27.398Z,-50.47
2022-08-09T12:45:59.887Z,-50.15
2022-08-09T12:47:12.708Z,-50.34
2022-08-09T12:48:37.188Z,-49.69
2022-08-09T12:49:55.239Z,-49.21
2022-08-09T12:51:13.818Z,-49.05
2022-08-09T12:52:42.653Z,-49.66
2022-08-09T12:53:59.461Z,-49.14
2022-08-09T12:56:16.166Z,-48.73
2022-08-09T12:56:48.523Z,-48.91
2022-08-09T12:58:02.698Z,-48.97
2022-08-09T12:59:21.295Z,-48.59
2022-08-09T13:00:39.644Z,-49.07
2022-08-09T13:01:58.183Z,-48.84
2022-08-09T13:03:20.637Z,-49.11
2022-08-09T13:04:39.153Z,-48.64
2022-08-09T13:06:13.513Z,-48.60
2022-08-09T13:07:28.566Z,-48.71
2022-08-09T13:08:43.591Z,-48.58
2022-08-09T13:10:05.872Z,-48.09
2022-08-09T13:11:26.114Z,-48.79
2022-08-09T13:13:10.058Z,-48.02
2022-08-09T13:14:37.079Z,-47.62
2022-08-09T13:15:31.299Z,-47.63
2022-08-09T13:16:51.383Z,-47.59
2022-08-09T13:18:09.834Z,-47.59
2022-08-09T13:20:09.747Z,-47.43
2022-08-09T13:21:03.929Z,-47.21
2022-08-09T13:22:35.481Z,-47.40
2022-08-09T13:24:48.382Z,-46.87
2022-08-09T13:25:05.235Z,-47.23
2022-08-09T13:26:35.708Z,-47.22
2022-08-09T13:27:56.369Z,-47.07
2022-08-09T13:29:10.629Z,-46.90
2022-08-09T13:30:50.439Z,-46.66
2022-08-09T13:32:16.610Z,-47.07
2022-08-09T13:33:18.210Z,-47.06
2022-08-09T13:34:35.550Z,-47.09
2022-08-09T13:36:39.145Z,-47.02
2022-08-09T13:37:50.987Z,-46.52
2022-08-09T13:38:57.238Z,-46.41
2022-08-09T13:41:54.737Z,-46.28
2022-08-09T13:41:57.132Z,-46.17
2022-08-09T13:42:48.257Z,-45.90
2022-08-09T13:44:05.754Z,-46.03
2022-08-09T13:45:32.584Z,-46.44
2022-08-09T13:47:26.486Z,-45.65
2022-08-09T13:48:12.385Z,-45.93
2022-08-09T13:49:37.425Z,-45.79
2022-08-09T13:50:56.258Z,-45.90
2022-08-09T13:52:15.069Z,-46.06
2022-08-09T13:53:41.313Z,-46.14
2022-08-09T13:55:04.481Z,-45.68
2022-08-09T13:56:21.782Z,-45.68
2022-08-09T13:57:43.889Z,-45.73
2022-08-09T13:59:02.310Z,-45.21
2022-08-09T14:00:20.693Z,-45.60
2022-08-09T14:02:01.129Z,-45.52
2022-08-09T14:04:01.551Z,-45.89
2022-08-09T14:04:26.561Z,-46.03
2022-08-09T14:05:58.520Z,-45.31
2022-08-09T14:07:07.235Z,-45.70
2022-08-09T14:08:26.888Z,-45.09
2022-08-09T14:09:47.284Z,-44.69
2022-08-09T14:11:16.239Z,-44.78
2022-08-09T14:12:34.367Z,-45.16
2022-08-09T14:16:06.674Z,-44.69
2022-08-09T14:17:08.421Z,-44.51
2022-08-09T14:18:32.150Z,-45.26
2022-08-09T14:19:50.619Z,-44.72
2022-08-09T14:21:10.099Z,-45.25
2022-08-09T14:22:29.701Z,-44.73
2022-08-09T14:23:53.798Z,-45.12
2022-08-09T14:25:11.759Z,-45.05
2022-08-09T14:26:33.782Z,-44.58
2022-08-09T14:27:56.877Z,-44.97
2022-08-09T14:29:25.742Z,-44.90
2022-08-09T14:30:41.440Z,-44.59
2022-08-09T14:32:06.026Z,-44.39
2022-08-09T14:33:22.915Z,-44.35
2022-08-09T14:34:40.981Z,-43.92
2022-08-09T14:35:59.696Z,-43.73
2022-08-09T14:37:22.483Z,-43.67
2022-08-09T14:38:45.576Z,-43.54
2022-08-09T14:40:07.826Z,-44.37
2022-08-09T14:41:40.091Z,-44.12
2022-08-09T14:42:51.428Z,-43.82
2022-08-09T14:44:11.126Z,-43.56
2022-08-09T14:46:58.275Z,-43.70
2022-08-09T14:47:03.926Z,-43.78
2022-08-09T14:48:15.098Z,-44.06
2022-08-09T14:49:34.552Z,-43.64
2022-08-09T14:50:57.261Z,-44.05
2022-08-09T14:52:15.593Z,-43.90
2022-08-09T14:53:39.751Z,-43.98
2022-08-09T14:54:58.235Z,-44.20
2022-08-09T14:56:17.114Z,-44.21
2022-08-09T14:57:43.216Z,-43.94
2022-08-09T14:59:02.068Z,-44.32
2022-08-09T15:00:19.399Z,-44.23
2022-08-09T15:01:37.797Z,-43.96
2022-08-09T15:02:58.216Z,-44.06
2022-08-09T15:04:15.751Z,-43.47
2022-08-09T15:05:34.081Z,-43.10
2022-08-09T15:06:55.370Z,-43.48
2022-08-09T15:08:16.449Z,-43.42
2022-08-09T15:10:07.411Z,-43.66
2022-08-09T15:11:00.756Z,-43.80
2022-08-09T15:12:19.161Z,-43.70
2022-08-09T15:13:48.531Z,-44.03
2022-08-09T15:15:00.702Z,-43.85
2022-08-09T15:16:19.034Z,-43.65
2022-08-09T15:17:41.502Z,-43.67
2022-08-09T15:19:05.797Z,-43.53
2022-08-09T15:21:55.328Z,-43.81
2022-08-09T15:21:57.383Z,-43.71
2022-08-09T15:24:01.703Z,-43.65
2022-08-09T15:24:32.350Z,-43.73
2022-08-09T15:25:50.068Z,-43.49
2022-08-09T15:27:08.418Z,-43.14
2022-08-09T15:28:33.358Z,-43.19
2022-08-09T15:30:55.476Z,-42.94
2022-08-09T15:31:18.527Z,-42.93
2022-08-09T15:32:37.153Z,-42.66
2022-08-09T15:34:17.266Z,-43.14
2022-08-09T15:35:18.631Z,-43.01
2022-08-09T15:36:40.910Z,-42.98
2022-08-09T15:38:11.828Z,-42.84
2022-08-09T15:39:34.890Z,-43.22
2022-08-09T15:40:50.570Z,-42.76
2022-08-09T15:42:08.885Z,-43.09
2022-08-09T15:43:36.925Z,-43.09
2022-08-09T15:44:51.146Z,-43.06
2022-08-09T15:46:32.589Z,-42.72
2022-08-09T15:47:47.178Z,-42.46
2022-08-09T15:49:22.756Z,-42.34
2022-08-09T15:50:18.623Z,-43.04
2022-08-09T15:52:00.763Z,-42.82
2022-08-09T15:53:07.069Z,-42.43
2022-08-09T15:54:31.289Z,-42.50
2022-08-09T15:56:04.530Z,-42.48
2022-08-09T15:57:09.517Z,-42.72
2022-08-09T15:58:27.425Z,-42.44
2022-08-09T15:59:48.771Z,-42.51
2022-08-09T16:01:08.047Z,-42.59
2022-08-09T16:02:27.515Z,-42.84
2022-08-09T16:03:45.825Z,-42.47
2022-08-09T16:05:09.135Z,-42.44
2022-08-09T16:06:35.781Z,-42.80
2022-08-09T16:07:50.750Z,-42.05
2022-08-09T16:09:09.428Z,-41.65
2022-08-09T16:10:56.180Z,-42.19
2022-08-09T16:11:57.066Z,-42.09
2022-08-09T16:13:18.632Z,-41.84
2022-08-09T16:14:35.790Z,-42.17
2022-08-09T16:16:11.627Z,-42.23
2022-08-09T16:17:17.395Z,-42.12
2022-08-09T16:18:34.040Z,-41.70
2022-08-09T16:20:04.127Z,-41.93
2022-08-09T16:21:17.195Z,-41.74
2022-08-09T16:22:42.464Z,-41.70
2022-08-09T16:24:02.421Z,-41.35
2022-08-09T16:25:36.882Z,-41.71
2022-08-09T16:26:48.815Z,-41.64
2022-08-09T16:28:07.269Z,-41.68
2022-08-09T16:29:36.863Z,-41.54
2022-08-09T16:30:58.814Z,-41.62
2022-08-09T16:32:34.318Z,-41.38
2022-08-09T16:33:38.796Z,-41.57
2022-08-09T16:34:58.404Z,-41.60
2022-08-09T16:36:18.784Z,-41.21
2022-08-09T16:37:54.572Z,-41.31
2022-08-09T16:39:00.452Z,-41.48
2022-08-09T16:40:20.645Z,-41.35
2022-08-09T16:42:04.034Z,-41.31
2022-08-09T16:43:04.668Z,-41.26
2022-08-09T16:44:22.977Z,-41.35
2022-08-09T16:45:46.140Z,-41.22
2022-08-09T16:48:39.565Z,-41.08
2022-08-09T16:48:42.613Z,-40.56
2022-08-09T16:50:32.144Z,-40.84
2022-08-09T16:51:16.278Z,-41.51
2022-08-09T16:52:34.238Z,-40.79
2022-08-09T16:55:18.145Z,-40.84
2022-08-09T16:56:36.563Z,-40.77
2022-08-09T16:58:08.250Z,-41.04
2022-08-09T16:59:17.574Z,-40.79
2022-08-09T17:00:35.970Z,-41.13
2022-08-09T17:01:57.981Z,-41.27
2022-08-09T17:03:21.671Z,-41.45
2022-08-09T17:04:38.505Z,-41.56
2022-08-09T17:06:08.145Z,-41.26
2022-08-09T17:08:43.874Z,-41.76
2022-08-09T17:09:01.432Z,-41.83
2022-08-09T17:10:05.896Z,-41.86
2022-08-09T17:11:37.652Z,-41.67
2022-08-09T17:12:50.120Z,-41.58
2022-08-09T17:14:08.497Z,-41.70